Asheboro, NC (27203)

7:52 AM EDT on August 28, 2016 (GMT -0400)
| | Change Station

Elev -9999 ft 0.00 °N, 0.00 °E | Updated

Clear
Clear
79 °F
Feels Like 79 °F
N
7
Wind Variable Wind from NE
Gusts mph

Today
High -- | Low -- °F
--% Chance of Precip.
Yesterday
High -- | Low -- °F
Precip. -- in
Pressure 30.22 in
Visibility 10.0 miles
Clouds Scattered Clouds 500 ft
Dew Point 67 °F
Humidity 66%
Rainfall --
Snow Depth Not available.
6:48 AM 7:51 PM
Waning Crescent, 16% visible
METAR KHBI 281135Z AUTO 00000KT 10SM SCT005 23/22 A3022 RMK AO2 T02260217
Pressure 30.22 in
Visibility 10.0 miles
Clouds Scattered Clouds 500 ft
Dew Point 67 °F
Humidity 66%
Rainfall --
Snow Depth Not available.
6:48 AM 7:51 PM
Waning Crescent, 16% visible
METAR KHBI 281135Z AUTO 00000KT 10SM SCT005 23/22 A3022 RMK AO2 T02260217

10-Day Weather Forecast

Almanac

Astronomy

Aug. 28, 2016 Rise Set
Actual Time
Civil Twilight
Nautical Twilight
Astronomical Twilight
Moon
Length of Visible Light
Length of Day
Tomorrow will be .
, % of the Moon is Illuminated

Today's Extremes

State Highs State Lows

Community

WunderPhotos

Upload Photos

1,935,549 photos uploaded!

WunderBlog® & News

Nearby

Air Quality

  Air Quality AQ Index Pollutant
Not available.

Snow Depth

Station Depth Elevation

Earthquake Activity

City Distance Mag. Time & Date
Minimum magnitude displayed is 2.5.

Coastal Water Temperatures

Place Temperature

Stations

Nearby Weather Stations

Station Location Temp. Windchill Dew Point Humidity Wind Precip. Elev Updated Type
                   

Watches & Warnings

There are currently no watches in effect.